N275CM KSLE-KBDN
Flight info
| Callsign | N275CM |
|---|---|
| Flight time | N/A |
| Altitude | 19000 |
| Route | DSD |
| Aircraft | SF50/L-VGDW/C |
Departure
| Time | 2026-05-07 01:37 |
|---|---|
| Airport | Salem-Willamette Valley Airport/McNary Field (KSLE) |
Arrival
| Time | N/A |
|---|---|
| Airport | Bend Municipal Airport (KBDN) |
| Time | Latitude | Longitude | Altitude | Speed | Heading |
|---|---|---|---|---|---|
| 2026-05-07 01:27 | 44.90682 | -123.00632 | 200 ft | 0 kts | 269° |
| 2026-05-07 01:33 | 44.90655 | -123.00652 | 208 ft | 10 kts | 158° |
| 2026-05-07 01:33 | 44.90590 | -123.00607 | 200 ft | 11 kts | 152° |
| 2026-05-07 01:34 | 44.90513 | -123.00555 | 200 ft | 13 kts | 164° |
| 2026-05-07 01:34 | 44.90417 | -123.00558 | 200 ft | 14 kts | 183° |
| 2026-05-07 01:34 | 44.90328 | -123.00541 | 200 ft | 11 kts | 156° |
| 2026-05-07 01:34 | 44.90273 | -123.00474 | 203 ft | 11 kts | 133° |
| 2026-05-07 01:35 | 44.90218 | -123.00391 | 204 ft | 12 kts | 118° |
| 2026-05-07 01:35 | 44.90217 | -123.00267 | 200 ft | 14 kts | 80° |
| 2026-05-07 01:35 | 44.90235 | -123.00120 | 200 ft | 16 kts | 78° |
| 2026-05-07 01:35 | 44.90258 | -122.99951 | 200 ft | 18 kts | 79° |
| 2026-05-07 01:36 | 44.90279 | -122.99802 | 210 ft | 13 kts | 78° |
| 2026-05-07 01:36 | 44.90294 | -122.99691 | 207 ft | 10 kts | 79° |
| 2026-05-07 01:36 | 44.90331 | -122.99635 | 202 ft | 7 kts | 356° |
| 2026-05-07 01:36 | 44.90348 | -122.99643 | 208 ft | 0 kts | 332° |
| 2026-05-07 01:37 | 44.90487 | -122.99755 | 199 ft | 61 kts | 330° |
| 2026-05-07 01:37 | 44.91058 | -123.00205 | 315 ft | 116 kts | 328° |
| 2026-05-07 01:37 | 44.91730 | -123.00691 | 925 ft | 107 kts | 324° |
| 2026-05-07 01:37 | 44.92511 | -123.01324 | 891 ft | 142 kts | 329° |
| 2026-05-07 01:38 | 44.93455 | -123.02087 | 1045 ft | 166 kts | 327° |
| 2026-05-07 01:38 | 44.94402 | -123.02909 | 1887 ft | 159 kts | 325° |
| 2026-05-07 01:38 | 44.95373 | -123.03736 | 2540 ft | 167 kts | 328° |
| 2026-05-07 01:38 | 44.96423 | -123.04476 | 3179 ft | 173 kts | 348° |
| 2026-05-07 01:39 | 44.97541 | -123.03975 | 3859 ft | 175 kts | 45° |
| 2026-05-07 01:39 | 44.98229 | -123.02534 | 4481 ft | 180 kts | 58° |
| 2026-05-07 01:39 | 44.98692 | -123.00901 | 5102 ft | 185 kts | 89° |
| 2026-05-07 01:39 | 44.98175 | -122.99292 | 5745 ft | 185 kts | 136° |
| 2026-05-07 01:40 | 44.97287 | -122.97964 | 6276 ft | 192 kts | 128° |
| 2026-05-07 01:40 | 44.96598 | -122.96318 | 6815 ft | 198 kts | 120° |
| 2026-05-07 01:40 | 44.95920 | -122.94612 | 7365 ft | 201 kts | 122° |
| 2026-05-07 01:40 | 44.95200 | -122.92908 | 7923 ft | 203 kts | 123° |
| 2026-05-07 01:41 | 44.94474 | -122.91175 | 8484 ft | 206 kts | 122° |
| 2026-05-07 01:41 | 44.93741 | -122.89422 | 9039 ft | 209 kts | 122° |
| 2026-05-07 01:41 | 44.92998 | -122.87647 | 9585 ft | 211 kts | 122° |
| 2026-05-07 01:41 | 44.92246 | -122.85849 | 10139 ft | 214 kts | 122° |
| 2026-05-07 01:42 | 44.91485 | -122.84035 | 10637 ft | 216 kts | 122° |
| 2026-05-07 01:42 | 44.90712 | -122.82197 | 11132 ft | 218 kts | 122° |
| 2026-05-07 01:42 | 44.89934 | -122.80343 | 11603 ft | 221 kts | 122° |
| 2026-05-07 01:42 | 44.89144 | -122.78464 | 12107 ft | 223 kts | 122° |
| 2026-05-07 01:43 | 44.88349 | -122.76571 | 12586 ft | 226 kts | 122° |
| 2026-05-07 01:43 | 44.87545 | -122.74660 | 13071 ft | 228 kts | 122° |
| 2026-05-07 01:43 | 44.86733 | -122.72728 | 13548 ft | 230 kts | 122° |
| 2026-05-07 01:43 | 44.85922 | -122.70798 | 14014 ft | 232 kts | 122° |
| 2026-05-07 01:44 | 44.85094 | -122.68832 | 14417 ft | 234 kts | 122° |
| 2026-05-07 01:44 | 44.84261 | -122.66856 | 14854 ft | 235 kts | 122° |
| 2026-05-07 01:44 | 44.83419 | -122.64865 | 15285 ft | 236 kts | 122° |
| 2026-05-07 01:44 | 44.82579 | -122.62877 | 15717 ft | 237 kts | 122° |
| 2026-05-07 01:45 | 44.81731 | -122.60874 | 16119 ft | 239 kts | 122° |
| 2026-05-07 01:45 | 44.80878 | -122.58854 | 16519 ft | 241 kts | 122° |
| 2026-05-07 01:45 | 44.80016 | -122.56819 | 16916 ft | 242 kts | 123° |
| 2026-05-07 01:45 | 44.79148 | -122.54770 | 17320 ft | 244 kts | 123° |
| 2026-05-07 01:46 | 44.78274 | -122.52711 | 17726 ft | 246 kts | 123° |
| 2026-05-07 01:46 | 44.77396 | -122.50637 | 18106 ft | 247 kts | 123° |
| 2026-05-07 01:46 | 44.76512 | -122.48548 | 18477 ft | 249 kts | 123° |
| 2026-05-07 01:46 | 44.75619 | -122.46448 | 18793 ft | 251 kts | 123° |
| 2026-05-07 01:47 | 44.74734 | -122.44367 | 19107 ft | 252 kts | 122° |
| 2026-05-07 01:47 | 44.73809 | -122.42189 | 19160 ft | 267 kts | 122° |
| 2026-05-07 01:47 | 44.72832 | -122.39899 | 19172 ft | 279 kts | 122° |
| 2026-05-07 01:47 | 44.71819 | -122.37520 | 19170 ft | 287 kts | 122° |
| 2026-05-07 01:48 | 44.70778 | -122.35080 | 19158 ft | 293 kts | 122° |
| 2026-05-07 01:48 | 44.69721 | -122.32603 | 19162 ft | 297 kts | 122° |
| 2026-05-07 01:48 | 44.68648 | -122.30090 | 19158 ft | 300 kts | 122° |
| 2026-05-07 01:48 | 44.67587 | -122.27604 | 19161 ft | 301 kts | 122° |
| 2026-05-07 01:49 | 44.66502 | -122.25072 | 19168 ft | 303 kts | 122° |
| 2026-05-07 01:49 | 44.65405 | -122.22515 | 19156 ft | 306 kts | 122° |
| 2026-05-07 01:49 | 44.64307 | -122.19948 | 19166 ft | 307 kts | 122° |
| 2026-05-07 01:49 | 44.63201 | -122.17365 | 19157 ft | 310 kts | 122° |
| 2026-05-07 01:50 | 44.62085 | -122.14772 | 19158 ft | 311 kts | 122° |
| 2026-05-07 01:50 | 44.60969 | -122.12171 | 19154 ft | 313 kts | 122° |
| 2026-05-07 01:50 | 44.59843 | -122.09553 | 19152 ft | 313 kts | 122° |
| 2026-05-07 01:50 | 44.58712 | -122.06924 | 19143 ft | 316 kts | 122° |
| 2026-05-07 01:51 | 44.57569 | -122.04275 | 19149 ft | 318 kts | 122° |
| 2026-05-07 01:51 | 44.56417 | -122.01611 | 19147 ft | 320 kts | 122° |
| 2026-05-07 01:51 | 44.55261 | -121.98934 | 19137 ft | 322 kts | 122° |
| 2026-05-07 01:51 | 44.54096 | -121.96236 | 19136 ft | 325 kts | 122° |
| 2026-05-07 01:52 | 44.52922 | -121.93517 | 19136 ft | 327 kts | 122° |
| 2026-05-07 01:52 | 44.51754 | -121.90821 | 19115 ft | 328 kts | 122° |
| 2026-05-07 01:52 | 44.50556 | -121.88051 | 19131 ft | 328 kts | 122° |
| 2026-05-07 01:52 | 44.49382 | -121.85352 | 19127 ft | 329 kts | 122° |
| 2026-05-07 01:53 | 44.48191 | -121.82609 | 19123 ft | 329 kts | 122° |
| 2026-05-07 01:53 | 44.46998 | -121.79863 | 19121 ft | 329 kts | 122° |
| 2026-05-07 01:53 | 44.45802 | -121.77119 | 19121 ft | 330 kts | 123° |
| 2026-05-07 01:53 | 44.44603 | -121.74367 | 18993 ft | 335 kts | 123° |
| 2026-05-07 01:54 | 44.43375 | -121.71550 | 18741 ft | 343 kts | 123° |
| 2026-05-07 01:54 | 44.42123 | -121.68682 | 18484 ft | 348 kts | 123° |
| 2026-05-07 01:54 | 44.40870 | -121.65810 | 18219 ft | 352 kts | 123° |
| 2026-05-07 01:54 | 44.39595 | -121.62892 | 17933 ft | 351 kts | 123° |
| 2026-05-07 01:55 | 44.38322 | -121.59981 | 17640 ft | 350 kts | 123° |
| 2026-05-07 01:55 | 44.37050 | -121.57079 | 17354 ft | 349 kts | 123° |
| 2026-05-07 01:55 | 44.35783 | -121.54191 | 17074 ft | 345 kts | 123° |
| 2026-05-07 01:55 | 44.34565 | -121.51411 | 16783 ft | 327 kts | 123° |
| 2026-05-07 01:56 | 44.33377 | -121.48708 | 16500 ft | 328 kts | 123° |
| 2026-05-07 01:56 | 44.32179 | -121.45994 | 16227 ft | 328 kts | 123° |
| 2026-05-07 01:56 | 44.30990 | -121.43293 | 15955 ft | 324 kts | 123° |
| 2026-05-07 01:56 | 44.29822 | -121.40639 | 15687 ft | 322 kts | 123° |
| 2026-05-07 01:57 | 44.28652 | -121.37988 | 15438 ft | 319 kts | 123° |
| 2026-05-07 01:57 | 44.27490 | -121.35357 | 15175 ft | 317 kts | 123° |
| 2026-05-07 01:57 | 44.26321 | -121.32762 | 14913 ft | 315 kts | 126° |
| 2026-05-07 01:57 | 44.24838 | -121.30531 | 14644 ft | 313 kts | 142° |
| 2026-05-07 01:58 | 44.23673 | -121.29362 | 14468 ft | 311 kts | 152° |
| 2026-05-07 01:58 | 44.21758 | -121.28045 | 14212 ft | 305 kts | 159° |
| 2026-05-07 01:58 | 44.19839 | -121.26806 | 13957 ft | 303 kts | 158° |
| 2026-05-07 01:58 | 44.17932 | -121.25547 | 13684 ft | 302 kts | 158° |
| 2026-05-07 01:59 | 44.16033 | -121.24299 | 13399 ft | 301 kts | 158° |
| 2026-05-07 01:59 | 44.14137 | -121.23066 | 13117 ft | 300 kts | 158° |
| 2026-05-07 01:59 | 44.12247 | -121.21838 | 12835 ft | 298 kts | 158° |
| 2026-05-07 01:59 | 44.10390 | -121.20628 | 12559 ft | 297 kts | 158° |
| 2026-05-07 02:00 | 44.08491 | -121.19583 | 12266 ft | 291 kts | 171° |
| 2026-05-07 02:00 | 44.06532 | -121.19742 | 11966 ft | 279 kts | 203° |
| 2026-05-07 02:00 | 44.04951 | -121.21167 | 11681 ft | 268 kts | 229° |
| 2026-05-07 02:00 | 44.04038 | -121.23372 | 11401 ft | 263 kts | 254° |
| 2026-05-07 02:01 | 44.03932 | -121.25863 | 11124 ft | 257 kts | 279° |
| 2026-05-07 02:01 | 44.04634 | -121.28158 | 10863 ft | 261 kts | 304° |
| 2026-05-07 02:01 | 44.06000 | -121.29796 | 10580 ft | 266 kts | 328° |
| 2026-05-07 02:01 | 44.07812 | -121.30400 | 10317 ft | 271 kts | 355° |
| 2026-05-07 02:02 | 44.09660 | -121.29849 | 10050 ft | 276 kts | 15° |
| 2026-05-07 02:02 | 44.11478 | -121.28895 | 9777 ft | 280 kts | 18° |
| 2026-05-07 02:02 | 44.13278 | -121.27949 | 9492 ft | 273 kts | 15° |
| 2026-05-07 02:02 | 44.15046 | -121.27067 | 9215 ft | 273 kts | 17° |
| 2026-05-07 02:03 | 44.16836 | -121.26203 | 8938 ft | 270 kts | 11° |
| 2026-05-07 02:03 | 44.18632 | -121.26150 | 8628 ft | 254 kts | 343° |
| 2026-05-07 02:03 | 44.20254 | -121.27037 | 8355 ft | 249 kts | 331° |
| 2026-05-07 02:03 | 44.21818 | -121.28090 | 8086 ft | 249 kts | 332° |
| 2026-05-07 02:04 | 44.23380 | -121.29124 | 8002 ft | 245 kts | 332° |
| 2026-05-07 02:04 | 44.24920 | -121.30126 | 8003 ft | 246 kts | 332° |
| 2026-05-07 02:04 | 44.26338 | -121.31414 | 7981 ft | 246 kts | 311° |
| 2026-05-07 02:04 | 44.27116 | -121.33482 | 7982 ft | 242 kts | 285° |
| 2026-05-07 02:05 | 44.27088 | -121.35835 | 7976 ft | 247 kts | 258° |
| 2026-05-07 02:05 | 44.26222 | -121.37912 | 7972 ft | 256 kts | 230° |
| 2026-05-07 02:05 | 44.24673 | -121.39139 | 7970 ft | 264 kts | 199° |
| 2026-05-07 02:05 | 44.22807 | -121.39049 | 7976 ft | 277 kts | 166° |
| 2026-05-07 02:06 | 44.21226 | -121.37518 | 7973 ft | 283 kts | 130° |
| 2026-05-07 02:06 | 44.20302 | -121.35185 | 8031 ft | 276 kts | 114° |
| 2026-05-07 02:06 | 44.19673 | -121.32661 | 7980 ft | 280 kts | 106° |